Time;durP1;ratioP1;P1;durP2;ratioP2;P2;SDS_P1;SDS_P2;PMS_P1;PMS_P2;Temp;Humidity;BMP_temperature;BMP_pressure;BME280_temperature;BME280_humidity;BME280_pressure;Samples;Min_cycle;Max_cycle;Signal;HPM_P1;HPM_P2
2022/04/09 00:02:13;;;;;;;;;;;;;;;17.89;70.67;99782.94;5047821;28;1630;-58
2022/04/09 00:04:40;;;;;;;;;;;;;;;17.88;70.82;99777.75;5044601;28;1977;-58
2022/04/09 00:07:06;;;;;;;;;;;;;;;17.87;70.90;99774.22;5049854;28;1361;-58
2022/04/09 00:09:33;;;;;;;;;;;;;;;17.84;70.94;99771.84;5042947;28;1869;-58
2022/04/09 00:11:59;;;;;;;;;;;;;;;17.84;70.81;99768.34;5049019;28;1645;-58
2022/04/09 00:14:27;;;;;;;;;;;;;;;17.85;70.72;99762.84;5044991;28;1786;-58
2022/04/09 00:16:54;;;;;;;;;;;;;;;17.85;70.76;99773.53;5048210;28;1519;-59
2022/04/09 00:19:20;;;;;;;;;;;;;;;17.82;70.75;99747.06;5045676;28;1509;-58
2022/04/09 00:21:47;;;;;;;;;;;;;;;17.87;70.27;99749.34;5049487;28;1305;-59
2022/04/09 00:24:14;;;;;;;;;;;;;;;17.85;70.53;99737.94;5043519;28;1535;-58
2022/04/09 00:26:40;;;;;;;;;;;;;;;17.82;69.97;99744.38;5048052;28;1902;-59
2022/04/09 00:29:07;;;;;;;;;;;;;;;17.84;70.62;99757.66;5043104;28;1361;-58
2022/04/09 00:31:35;;;;;;;;;;;;;;;17.82;70.49;99760.44;5045919;28;1891;-59
2022/04/09 00:34:02;;;;;;;;;;;;;;;17.78;70.30;99751.03;5050005;28;1493;-58
2022/04/09 00:36:28;;;;;;;;;;;;;;;17.82;70.79;99744.38;5043497;28;1048;-57
2022/04/09 00:38:55;;;;;;;;;;;;;;;17.80;70.60;99754.41;5040139;28;1541;-58
2022/04/09 00:41:21;;;;;;;;;;;;;;;17.81;70.68;99753.41;5043301;28;1588;-59
2022/04/09 00:43:48;;;;;;;;;;;;;;;17.81;70.45;99761.44;5044728;28;1636;-58
2022/04/09 00:46:15;;;;;;;;;;;;;;;17.79;70.52;99744.72;5049796;28;1975;-59
2022/04/09 00:48:44;;;;;;;;;;;;;;;17.80;70.25;99746.38;5046017;28;1624;-58
2022/04/09 00:51:10;;;;;;;;;;;;;;;17.78;70.06;99756.38;5043668;28;1018;-58
2022/04/09 00:53:39;;;;;;;;;;;;;;;17.82;70.18;99759.59;5040317;28;1462;-58
2022/04/09 00:56:15;;;;;;;;;;;;;;;17.79;70.17;99757.25;5044612;28;1378;-58
2022/04/09 00:58:46;;;;;;;;;;;;;;;17.78;70.39;99748.38;5042410;28;1585;-58
2022/04/09 01:01:12;;;;;;;;;;;;;;;17.76;70.55;99749.50;5051084;28;1535;-58
2022/04/09 01:03:39;;;;;;;;;;;;;;;18.09;69.69;99751.53;5048662;28;1346;-58
2022/04/09 01:06:09;;;;;;;;;;;;;;;18.34;67.85;99737.50;5043970;28;1973;-58
2022/04/09 01:08:36;;;;;;;;;;;;;;;18.45;67.80;99740.75;5040178;28;1512;-58
2022/04/09 01:11:02;;;;;;;;;;;;;;;18.66;67.87;99745.75;5042658;28;1601;-58
2022/04/09 01:13:29;;;;;;;;;;;;;;;18.71;67.53;99737.25;5046472;28;1369;-58
2022/04/09 01:15:56;;;;;;;;;;;;;;;18.87;66.67;99741.88;5048605;28;1989;-58
2022/04/09 01:18:23;;;;;;;;;;;;;;;19.07;67.06;99729.91;5045780;28;1491;-58
2022/04/09 01:20:49;;;;;;;;;;;;;;;19.23;65.34;99726.44;5043414;28;986;-58
2022/04/09 01:23:17;;;;;;;;;;;;;;;19.26;65.36;99723.47;5036776;28;1767;-59
2022/04/09 01:25:44;;;;;;;;;;;;;;;19.25;65.68;99729.81;5045279;28;1914;-58
2022/04/09 01:28:11;;;;;;;;;;;;;;;19.22;66.04;99715.91;5045055;28;1319;-58
2022/04/09 01:30:37;;;;;;;;;;;;;;;18.96;66.08;99716.81;5055818;28;1865;-58
2022/04/09 01:33:04;;;;;;;;;;;;;;;18.99;66.06;99721.84;5051352;28;1322;-58
2022/04/09 01:35:30;;;;;;;;;;;;;;;19.03;67.33;99712.47;5045790;28;1867;-59
2022/04/09 01:37:57;;;;;;;;;;;;;;;19.13;65.79;99711.53;5056534;28;1723;-58
2022/04/09 01:40:25;;;;;;;;;;;;;;;19.46;64.86;99702.56;5047585;28;1577;-59
2022/04/09 01:42:51;;;;;;;;;;;;;;;19.54;65.32;99714.31;5046961;28;1592;-58
2022/04/09 01:45:18;;;;;;;;;;;;;;;19.51;64.92;99715.47;5051907;28;1898;-59
2022/04/09 01:47:45;;;;;;;;;;;;;;;19.48;64.65;99707.78;5049353;28;1602;-59
2022/04/09 01:50:11;;;;;;;;;;;;;;;19.50;65.58;99713.81;5043448;28;1450;-58
2022/04/09 01:52:38;;;;;;;;;;;;;;;19.49;65.29;99720.16;5055857;28;1572;-59
2022/04/09 01:55:05;;;;;;;;;;;;;;;19.53;64.92;99691.19;5047583;28;1462;-59
2022/04/09 01:57:33;;;;;;;;;;;;;;;19.58;65.76;99710.31;5046203;28;1438;-58
2022/04/09 02:00:00;;;;;;;;;;;;;;;19.65;65.14;99722.03;5051462;28;1412;-59
2022/04/09 02:02:27;;;;;;;;;;;;;;;19.61;65.14;99726.06;5042207;28;1570;-58
2022/04/09 02:04:53;;;;;;;;;;;;;;;19.62;64.12;99727.75;5053412;28;1906;-59
2022/04/09 02:07:20;;;;;;;;;;;;;;;19.60;65.06;99724.38;5049157;28;1466;-58
2022/04/09 02:09:46;;;;;;;;;;;;;;;19.58;65.52;99726.41;5052363;28;1416;-58
2022/04/09 02:12:13;;;;;;;;;;;;;;;19.66;64.82;99723.72;5049362;28;1771;-58
2022/04/09 02:14:41;;;;;;;;;;;;;;;19.65;64.18;99738.13;5044246;28;1720;-58
2022/04/09 02:17:08;;;;;;;;;;;;;;;19.70;64.60;99743.03;5050846;28;1652;-58
2022/04/09 02:19:34;;;;;;;;;;;;;;;19.66;64.81;99739.81;5046834;28;1577;-57
2022/04/09 02:22:01;;;;;;;;;;;;;;;19.61;64.28;99739.47;5040622;28;978;-58
2022/04/09 02:24:27;;;;;;;;;;;;;;;19.63;65.10;99753.53;5048786;28;1779;-58
2022/04/09 02:26:54;;;;;;;;;;;;;;;19.63;64.55;99749.00;5047972;28;1934;-58
2022/04/09 02:29:21;;;;;;;;;;;;;;;19.64;65.03;99734.63;5049327;28;1386;-58
2022/04/09 02:31:49;;;;;;;;;;;;;;;19.66;64.85;99739.81;5042913;28;1585;-58
2022/04/09 02:34:16;;;;;;;;;;;;;;;19.69;65.07;99739.47;5053458;28;1870;-58
2022/04/09 02:36:42;;;;;;;;;;;;;;;19.65;65.24;99727.41;5048197;28;981;-58
2022/04/09 02:39:09;;;;;;;;;;;;;;;19.73;65.18;99727.44;5050778;28;1770;-59
2022/04/09 02:41:35;;;;;;;;;;;;;;;19.72;64.56;99722.25;5045066;28;1517;-59
2022/04/09 02:44:02;;;;;;;;;;;;;;;19.73;63.83;99719.41;5051564;28;1444;-58
2022/04/09 02:46:29;;;;;;;;;;;;;;;19.78;63.70;99738.53;5043745;28;1977;-58
2022/04/09 02:48:57;;;;;;;;;;;;;;;19.71;64.99;99729.44;5048931;28;1311;-58
2022/04/09 02:51:23;;;;;;;;;;;;;;;19.70;64.38;99732.28;5047808;28;1229;-58
2022/04/09 02:53:50;;;;;;;;;;;;;;;19.65;64.01;99724.72;5048631;28;1536;-58
2022/04/09 02:56:16;;;;;;;;;;;;;;;19.69;64.62;99736.78;5046522;28;1560;-58
2022/04/09 02:58:43;;;;;;;;;;;;;;;19.77;64.78;99742.19;5051305;28;1459;-58
2022/04/09 03:01:10;;;;;;;;;;;;;;;19.77;63.76;99744.88;5045384;28;1473;-59
2022/04/09 03:03:37;;;;;;;;;;;;;;;19.70;64.41;99746.53;5047827;28;1310;-59
2022/04/09 03:06:05;;;;;;;;;;;;;;;19.72;63.95;99741.88;5046511;28;1906;-59
2022/04/09 03:08:32;;;;;;;;;;;;;;;19.76;64.62;99758.47;5050874;28;1540;-59
2022/04/09 03:10:58;;;;;;;;;;;;;;;19.81;64.43;99743.53;5043993;28;1568;-58
2022/04/09 03:13:25;;;;;;;;;;;;;;;19.83;64.22;99752.25;5051415;28;1531;-58
2022/04/09 03:15:51;;;;;;;;;;;;;;;19.84;63.84;99758.50;5051403;28;1300;-58
2022/04/09 03:18:18;;;;;;;;;;;;;;;19.87;64.56;99747.41;5053652;28;1429;-59
2022/04/09 03:20:44;;;;;;;;;;;;;;;19.86;63.45;99751.94;5045677;28;978;-58
2022/04/09 03:23:12;;;;;;;;;;;;;;;19.79;64.60;99760.81;5046198;28;1559;-58
2022/04/09 03:25:39;;;;;;;;;;;;;;;19.80;64.67;99757.97;5043629;28;1988;-58
2022/04/09 03:28:05;;;;;;;;;;;;;;;19.86;63.94;99751.13;5047367;28;1416;-58
2022/04/09 03:30:32;;;;;;;;;;;;;;;19.86;64.18;99761.84;5045274;28;1311;-58
2022/04/09 03:32:59;;;;;;;;;;;;;;;19.86;64.54;99757.31;5047591;28;1766;-58
2022/04/09 03:35:26;;;;;;;;;;;;;;;19.81;64.67;99762.31;5041531;28;1584;-58
2022/04/09 03:37:52;;;;;;;;;;;;;;;19.91;63.46;99756.81;5053927;28;1711;-58
2022/04/09 03:40:20;;;;;;;;;;;;;;;19.85;63.76;99760.16;5046086;28;1573;-59
2022/04/09 03:42:47;;;;;;;;;;;;;;;19.88;63.62;99753.63;5049767;28;1419;-58
2022/04/09 03:45:13;;;;;;;;;;;;;;;19.97;64.11;99752.63;5044589;28;1703;-59
2022/04/09 03:47:40;;;;;;;;;;;;;;;19.95;64.39;99765.38;5043170;28;1969;-58
2022/04/09 03:50:07;;;;;;;;;;;;;;;19.97;63.51;99766.03;5048888;28;1771;-59
2022/04/09 03:52:33;;;;;;;;;;;;;;;19.98;63.33;99763.19;5049341;28;1420;-59
2022/04/09 03:55:00;;;;;;;;;;;;;;;19.78;63.63;99748.44;5053640;28;1308;-59
2022/04/09 03:57:28;;;;;;;;;;;;;;;19.35;64.92;99759.16;5051992;28;1129;-59
2022/04/09 03:59:57;;;;;;;;;;;;;;;19.12;66.09;99752.69;5052924;28;1734;-58
2022/04/09 04:02:23;;;;;;;;;;;;;;;18.97;66.88;99757.84;5051521;28;1400;-58
2022/04/09 04:04:50;;;;;;;;;;;;;;;18.87;66.16;99755.28;5055437;28;1302;-59
2022/04/09 04:07:20;;;;;;;;;;;;;;;18.80;66.59;99768.47;5054246;28;1898;-58
2022/04/09 04:09:47;;;;;;;;;;;;;;;18.75;66.44;99752.00;5035071;28;1028;-58
2022/04/09 04:12:13;;;;;;;;;;;;;;;18.70;66.98;99748.94;5046777;28;1775;-58
2022/04/09 04:14:41;;;;;;;;;;;;;;;18.68;66.62;99734.88;5040953;28;1504;-58
2022/04/09 04:17:08;;;;;;;;;;;;;;;18.64;66.61;99761.16;5048956;28;1868;-59
2022/04/09 04:19:35;;;;;;;;;;;;;;;18.67;67.00;99760.81;5041971;28;1374;-58
2022/04/09 04:22:01;;;;;;;;;;;;;;;18.65;67.12;99759.31;5052062;28;1079;-58
2022/04/09 04:24:28;;;;;;;;;;;;;;;18.61;67.41;99742.72;5047477;28;1856;-59
2022/04/09 04:26:54;;;;;;;;;;;;;;;18.60;66.95;99749.06;5040507;28;1910;-58
2022/04/09 04:29:21;;;;;;;;;;;;;;;18.57;66.88;99743.19;5044262;28;1612;-58
2022/04/09 04:31:49;;;;;;;;;;;;;;;18.56;66.99;99757.56;5046399;28;1474;-59
2022/04/09 04:34:15;;;;;;;;;;;;;;;18.55;66.97;99756.72;5044606;28;1470;-58
2022/04/09 04:36:42;;;;;;;;;;;;;;;18.52;67.15;99757.03;5043814;28;983;-58
2022/04/09 04:39:08;;;;;;;;;;;;;;;18.47;67.59;99760.19;5042607;28;1661;-59
2022/04/09 04:41:35;;;;;;;;;;;;;;;18.47;67.55;99756.69;5044259;28;1988;-59
2022/04/09 04:44:01;;;;;;;;;;;;;;;18.45;67.17;99758.66;5044177;28;1553;-59
2022/04/09 04:46:28;;;;;;;;;;;;;;;18.45;67.38;99756.00;5046958;28;1983;-59
2022/04/09 04:48:55;;;;;;;;;;;;;;;18.44;67.53;99762.31;5042164;28;1623;-59
2022/04/09 04:51:22;;;;;;;;;;;;;;;18.42;67.84;99772.34;5043681;28;971;-59
2022/04/09 04:53:48;;;;;;;;;;;;;;;18.40;68.13;99759.16;5042036;28;1771;-58
2022/04/09 04:56:15;;;;;;;;;;;;;;;18.49;67.22;99757.34;5044101;28;1616;-58
2022/04/09 04:58:41;;;;;;;;;;;;;;;18.58;64.96;99768.94;5044033;28;1585;-58
2022/04/09 05:01:08;;;;;;;;;;;;;;;18.62;65.34;99767.63;5048007;28;1450;-59
2022/04/09 05:03:37;;;;;;;;;;;;;;;18.63;66.71;99764.81;5044357;28;1569;-58
2022/04/09 05:06:05;;;;;;;;;;;;;;;18.85;65.80;99757.28;5048000;28;1977;-59
2022/04/09 05:08:32;;;;;;;;;;;;;;;18.97;66.07;99771.25;5043447;28;1767;-57
2022/04/09 05:10:58;;;;;;;;;;;;;;;19.07;66.34;99756.72;5050477;28;1274;-58
2022/04/09 05:13:25;;;;;;;;;;;;;;;19.27;64.91;99767.19;5046990;28;1374;-57
2022/04/09 05:15:51;;;;;;;;;;;;;;;19.54;65.25;99765.28;5046471;28;1266;-58
2022/04/09 05:18:18;;;;;;;;;;;;;;;19.61;64.53;99774.31;5046853;28;1361;-64
2022/04/09 05:20:45;;;;;;;;;;;;;;;19.66;63.74;99766.63;5049078;28;1059;-58
2022/04/09 05:23:13;;;;;;;;;;;;;;;19.79;63.48;99750.09;5055203;28;1552;-59
2022/04/09 05:25:41;;;;;;;;;;;;;;;19.89;64.30;99761.50;5045911;28;1386;-59
2022/04/09 05:28:09;;;;;;;;;;;;;;;19.90;64.42;99762.38;5056105;28;1902;-58
2022/04/09 05:30:35;;;;;;;;;;;;;;;20.05;63.53;99768.72;5053470;28;1870;-57
2022/04/09 05:33:02;;;;;;;;;;;;;;;20.23;62.71;99777.47;5054226;28;1314;-58
2022/04/09 05:35:29;;;;;;;;;;;;;;;20.10;63.19;99763.72;5054393;28;1476;-56
2022/04/09 05:37:55;;;;;;;;;;;;;;;20.10;64.38;99761.03;5053339;28;1572;-56
2022/04/09 05:40:23;;;;;;;;;;;;;;;20.14;64.24;99769.59;5051628;28;1382;-63
2022/04/09 05:42:50;;;;;;;;;;;;;;;20.33;64.63;99777.28;5049125;28;1375;-59
2022/04/09 05:45:17;;;;;;;;;;;;;;;20.44;64.55;99762.69;5055850;28;1318;-56
2022/04/09 05:47:44;;;;;;;;;;;;;;;20.40;63.46;99758.69;5055495;28;2006;-59
2022/04/09 05:50:11;;;;;;;;;;;;;;;20.21;64.61;99766.06;5049219;28;1992;-61
2022/04/09 05:52:38;;;;;;;;;;;;;;;19.99;64.72;99769.41;5056250;28;1564;-56
2022/04/09 05:55:05;;;;;;;;;;;;;;;19.90;65.78;99768.56;5054443;28;1362;-58
2022/04/09 05:57:34;;;;;;;;;;;;;;;19.81;65.87;99756.97;5051336;28;1275;-61
2022/04/09 06:00:01;;;;;;;;;;;;;;;19.65;64.90;99749.69;5047528;28;1168;-61
2022/04/09 06:02:27;;;;;;;;;;;;;;;19.70;65.19;99743.84;5050896;28;1599;-59
2022/04/09 06:04:53;;;;;;;;;;;;;;;19.72;65.36;99749.91;5050238;28;1335;-59
2022/04/09 06:07:20;;;;;;;;;;;;;;;19.72;66.25;99743.72;5042060;28;1973;-58
2022/04/09 06:09:49;;;;;;;;;;;;;;;19.66;66.16;99729.09;5051026;28;1334;-58
2022/04/09 06:12:16;;;;;;;;;;;;;;;19.60;66.03;99732.44;5053531;28;1307;-57
2022/04/09 06:14:43;;;;;;;;;;;;;;;19.62;66.49;99733.09;5052605;28;1542;-57
2022/04/09 06:17:10;;;;;;;;;;;;;;;19.56;66.62;99718.50;5051779;28;1264;-56
2022/04/09 06:19:36;;;;;;;;;;;;;;;19.58;65.33;99713.00;5054290;28;1425;-63
2022/04/09 06:22:03;;;;;;;;;;;;;;;19.58;65.81;99715.69;5056704;28;1145;-58
2022/04/09 06:24:29;;;;;;;;;;;;;;;19.57;66.04;99711.31;5053497;28;1431;-60
2022/04/09 06:26:56;;;;;;;;;;;;;;;19.62;66.27;99714.34;5055925;28;1999;-61
2022/04/09 06:29:22;;;;;;;;;;;;;;;19.71;64.73;99712.50;5050641;28;1869;-57
2022/04/09 06:31:50;;;;;;;;;;;;;;;19.64;66.31;99726.56;5049260;28;1619;-60
2022/04/09 06:34:18;;;;;;;;;;;;;;;19.74;64.96;99720.25;5054752;28;1445;-61
2022/04/09 06:36:45;;;;;;;;;;;;;;;19.76;66.26;99719.06;5061579;28;1221;-56
2022/04/09 06:39:11;;;;;;;;;;;;;;;19.80;65.31;99723.09;5058300;28;1389;-60
2022/04/09 06:41:38;;;;;;;;;;;;;;;19.78;65.58;99717.06;5054056;28;1445;-60
2022/04/09 06:44:05;;;;;;;;;;;;;;;19.77;65.18;99718.06;5051921;28;1235;-59
2022/04/09 06:46:32;;;;;;;;;;;;;;;19.75;65.25;99721.91;5053180;28;1898;-58
2022/04/09 06:49:01;;;;;;;;;;;;;;;19.74;66.06;99714.88;5055990;28;1476;-60
2022/04/09 06:51:27;;;;;;;;;;;;;;;19.68;65.65;99719.03;5056975;28;1272;-63
2022/04/09 06:53:54;;;;;;;;;;;;;;;19.72;66.92;99717.72;5053058;28;1417;-58
2022/04/09 06:56:20;;;;;;;;;;;;;;;19.77;65.98;99714.53;5054222;28;1985;-72
2022/04/09 06:58:47;;;;;;;;;;;;;;;19.77;65.88;99730.63;5053577;28;1461;-58
2022/04/09 07:01:13;;;;;;;;;;;;;;;19.75;66.13;99730.78;5053776;28;1434;-60
2022/04/09 07:03:40;;;;;;;;;;;;;;;19.76;66.38;99713.72;5053921;28;1269;-60
2022/04/09 07:06:08;;;;;;;;;;;;;;;19.75;66.91;99728.13;5055616;28;1090;-61
2022/04/09 07:08:34;;;;;;;;;;;;;;;19.74;67.24;99726.44;5054120;28;1965;-62
2022/04/09 07:11:00;;;;;;;;;;;;;;;19.75;66.04;99729.97;5052456;28;1381;-60
2022/04/09 07:13:28;;;;;;;;;;;;;;;19.77;67.17;99731.47;5053449;28;1510;-60
2022/04/09 07:15:55;;;;;;;;;;;;;;;19.81;66.34;99722.09;5051725;28;1608;-60
2022/04/09 07:18:22;;;;;;;;;;;;;;;19.87;65.25;99725.94;5050962;28;1525;-62
2022/04/09 07:20:48;;;;;;;;;;;;;;;19.90;63.74;99735.53;5052057;28;1266;-66
2022/04/09 07:23:16;;;;;;;;;;;;;;;19.84;61.21;99737.84;5052898;28;1336;-60
2022/04/09 07:25:42;;;;;;;;;;;;;;;19.92;60.36;99728.16;5051348;28;1494;-59
2022/04/09 07:28:09;;;;;;;;;;;;;;;19.85;59.42;99744.88;5050052;28;1979;-58
2022/04/09 07:30:36;;;;;;;;;;;;;;;19.85;58.38;99734.16;5051852;28;1422;-73
2022/04/09 07:33:02;;;;;;;;;;;;;;;19.85;56.35;99725.28;5050447;28;1535;-58
2022/04/09 07:35:29;;;;;;;;;;;;;;;19.66;55.59;99731.78;5048391;28;1684;-56
2022/04/09 07:37:58;;;;;;;;;;;;;;;19.60;56.30;99719.84;5052607;28;1668;-77
2022/04/09 07:40:27;;;;;;;;;;;;;;;19.73;55.01;99724.75;5057217;28;1206;-58
2022/04/09 07:42:55;;;;;;;;;;;;;;;19.69;54.56;99726.06;5053279;28;1489;-67
2022/04/09 07:45:21;;;;;;;;;;;;;;;19.73;53.61;99724.75;5054767;28;1545;-57
2022/04/09 07:47:53;;;;;;;;;;;;;;;19.61;54.80;99718.84;5052216;28;1969;-72
2022/04/09 07:50:19;;;;;;;;;;;;;;;19.65;53.67;99728.22;5052151;28;1564;-57
2022/04/09 07:52:46;;;;;;;;;;;;;;;19.60;52.39;99724.38;5051419;28;1517;-57
2022/04/09 07:55:15;;;;;;;;;;;;;;;19.59;52.29;99720.84;5045412;28;1509;-75
2022/04/09 07:57:42;;;;;;;;;;;;;;;19.59;52.03;99714.66;5051515;28;1701;-57
2022/04/09 08:00:10;;;;;;;;;;;;;;;19.67;50.78;99730.75;5048545;28;1433;-75
2022/04/09 08:02:36;;;;;;;;;;;;;;;19.66;51.97;99723.72;5040668;28;1564;-57
2022/04/09 08:05:03;;;;;;;;;;;;;;;19.63;51.46;99718.69;5045128;28;1576;-57
2022/04/09 08:07:29;;;;;;;;;;;;;;;19.59;52.02;99720.00;5049440;28;1970;-75
2022/04/09 08:09:56;;;;;;;;;;;;;;;19.56;51.95;99715.84;5049984;28;1558;-74
2022/04/09 08:12:22;;;;;;;;;;;;;;;19.55;50.46;99710.63;5051615;28;1548;-68
2022/04/09 08:14:50;;;;;;;;;;;;;;;19.61;51.46;99709.97;5049014;28;1691;-57
2022/04/09 08:17:20;;;;;;;;;;;;;;;19.75;48.77;99712.00;5043511;28;1540;-57
2022/04/09 08:19:47;;;;;;;;;;;;;;;19.64;50.36;99702.44;5041163;28;1405;-57
2022/04/09 08:22:13;;;;;;;;;;;;;;;19.74;51.64;99696.94;5054308;28;1389;-62
2022/04/09 08:24:41;;;;;;;;;;;;;;;19.86;50.46;99703.66;5050878;28;1592;-75
2022/04/09 08:27:08;;;;;;;;;;;;;;;19.85;50.81;99696.59;5047230;28;1969;-73
2022/04/09 08:29:35;;;;;;;;;;;;;;;19.85;52.00;99701.97;5049347;28;1849;-69
2022/04/09 08:32:04;;;;;;;;;;;;;;;19.80;52.91;99700.81;5048846;28;1490;-70
2022/04/09 08:34:33;;;;;;;;;;;;;;;19.77;51.29;99704.66;5052158;28;1711;-72
2022/04/09 08:37:00;;;;;;;;;;;;;;;19.79;51.44;99697.25;5041466;28;1075;-72
2022/04/09 08:39:27;;;;;;;;;;;;;;;19.85;52.68;99701.97;5046204;28;1576;-61
2022/04/09 08:41:53;;;;;;;;;;;;;;;20.00;51.61;99696.78;5046825;28;1600;-62
2022/04/09 08:44:21;;;;;;;;;;;;;;;20.02;52.83;99691.25;5044220;28;1581;-57
2022/04/09 08:46:48;;;;;;;;;;;;;;;20.09;51.25;99694.91;5047666;28;1585;-66
2022/04/09 08:49:16;;;;;;;;;;;;;;;20.09;50.96;99694.09;5044164;28;1969;-61
2022/04/09 08:51:43;;;;;;;;;;;;;;;20.01;51.92;99692.25;5052162;28;1350;-62
2022/04/09 08:54:09;;;;;;;;;;;;;;;20.03;51.09;99690.22;5051423;28;1648;-56
2022/04/09 08:56:37;;;;;;;;;;;;;;;20.12;50.34;99691.09;5048335;28;1691;-56
2022/04/09 08:59:03;;;;;;;;;;;;;;;20.12;51.66;99691.91;5045805;28;1572;-58
2022/04/09 09:01:30;;;;;;;;;;;;;;;20.10;50.14;99690.41;5048264;28;1688;-57
2022/04/09 09:03:57;;;;;;;;;;;;;;;20.12;49.78;99678.50;5046871;28;1437;-63
2022/04/09 09:06:27;;;;;;;;;;;;;;;20.20;48.82;99689.22;5045702;28;1583;-59
2022/04/09 09:08:54;;;;;;;;;;;;;;;20.15;50.72;99691.56;5046361;28;1906;-71
2022/04/09 09:11:21;;;;;;;;;;;;;;;20.12;51.93;99665.06;5043595;28;1585;-59
2022/04/09 09:13:48;;;;;;;;;;;;;;;19.99;52.12;99659.38;5050983;28;1607;-73
2022/04/09 09:16:25;;;;;;;;;;;;;;;20.01;52.53;99668.09;5048323;28;1600;-71
2022/04/09 09:18:52;;;;;;;;;;;;;;;19.97;51.76;99658.72;5045928;28;1711;-62
2022/04/09 09:21:23;;;;;;;;;;;;;;;19.98;52.37;99673.81;5052456;28;1896;-64
2022/04/09 09:23:52;;;;;;;;;;;;;;;19.99;52.13;99670.09;5047184;28;1679;-67
2022/04/09 09:26:23;;;;;;;;;;;;;;;19.96;53.09;99651.69;5048991;28;1580;-62
2022/04/09 09:28:57;;;;;;;;;;;;;;;19.93;51.57;99644.78;5051002;28;1918;-67
2022/04/09 09:31:41;;;;;;;;;;;;;;;19.96;51.90;99644.47;5051294;28;1696;-56
2022/04/09 09:34:09;;;;;;;;;;;;;;;20.05;52.18;99658.69;5051449;28;1409;-56
2022/04/09 09:36:36;;;;;;;;;;;;;;;20.03;53.80;99641.94;5052925;28;1493;-56
2022/04/09 09:39:05;;;;;;;;;;;;;;;19.88;53.07;99649.00;5047860;28;1529;-62
2022/04/09 09:41:32;;;;;;;;;;;;;;;19.69;53.57;99632.19;5048112;28;1584;-75
2022/04/09 09:44:02;;;;;;;;;;;;;;;19.64;54.11;99639.91;5042237;28;1624;-56
2022/04/09 09:46:29;;;;;;;;;;;;;;;19.66;54.57;99619.97;5047217;28;1589;-74
2022/04/09 09:48:55;;;;;;;;;;;;;;;19.66;54.41;99649.47;5043567;28;1906;-75
2022/04/09 09:51:23;;;;;;;;;;;;;;;19.59;53.76;99626.16;5056125;28;1591;-56
2022/04/09 09:53:49;;;;;;;;;;;;;;;19.59;54.02;99639.56;5053358;28;1707;-57
2022/04/09 09:56:33;;;;;;;;;;;;;;;19.58;53.14;99629.88;5053930;28;1473;-62
2022/04/09 09:59:01;;;;;;;;;;;;;;;19.57;54.28;99630.84;5046093;28;1558;-55
2022/04/09 10:01:27;;;;;;;;;;;;;;;19.62;54.66;99615.09;5059045;28;1413;-53
2022/04/09 10:03:54;;;;;;;;;;;;;;;19.60;55.09;99611.75;5060841;28;1889;-55
2022/04/09 10:06:21;;;;;;;;;;;;;;;19.64;55.71;99632.69;5045241;28;1099;-62
2022/04/09 10:08:48;;;;;;;;;;;;;;;19.56;54.88;99631.88;5046970;28;1992;-66
2022/04/09 10:11:16;;;;;;;;;;;;;;;19.47;54.93;99637.19;5046587;28;1976;-66
2022/04/09 10:13:47;;;;;;;;;;;;;;;19.52;55.18;99626.00;5050693;28;1763;-55
2022/04/09 10:16:18;;;;;;;;;;;;;;;19.53;54.58;99616.09;5055687;28;1396;-66
2022/04/09 10:18:48;;;;;;;;;;;;;;;19.45;55.22;99616.94;5056182;28;1429;-55
2022/04/09 10:21:15;;;;;;;;;;;;;;;19.44;56.73;99629.50;5056320;28;1445;-55
2022/04/09 10:23:42;;;;;;;;;;;;;;;19.46;56.55;99608.72;5058636;28;1525;-66
2022/04/09 10:26:09;;;;;;;;;;;;;;;19.48;55.68;99609.41;5057930;28;1771;-55
2022/04/09 10:28:37;;;;;;;;;;;;;;;19.41;56.88;99615.59;5041281;28;1909;-65
2022/04/09 10:31:24;;;;;;;;;;;;;;;19.43;56.37;99603.69;5045551;28;1530;-55
2022/04/09 10:33:53;;;;;;;;;;;;;;;19.43;59.26;99601.00;5061996;28;1430;-63
2022/04/09 10:36:46;;;;;;;;;;;;;;;19.50;57.48;99600.34;5063705;28;1383;-67
2022/04/09 10:39:20;;;;;;;;;;;;;;;19.45;57.84;99609.72;5057748;28;1637;-67
2022/04/09 10:41:46;;;;;;;;;;;;;;;19.39;56.96;99596.16;5049259;28;1682;-56
2022/04/09 10:44:33;;;;;;;;;;;;;;;19.36;58.22;99612.56;5050904;28;1647;-67
2022/04/09 10:47:02;;;;;;;;;;;;;;;19.33;57.46;99602.19;5043250;28;1867;-55
2022/04/09 10:49:30;;;;;;;;;;;;;;;19.29;57.00;99593.63;5047936;28;1906;-66
2022/04/09 10:52:19;;;;;;;;;;;;;;;19.25;57.51;99608.38;5050733;28;1636;-61
2022/04/09 10:55:10;;;;;;;;;;;;;;;19.27;58.28;99611.72;5049567;28;1459;-55
2022/04/09 10:57:44;;;;;;;;;;;;;;;19.23;57.40;99587.09;5037242;28;1816;-67
2022/04/09 11:00:26;;;;;;;;;;;;;;;19.23;58.44;99599.66;5048892;28;1391;-67
2022/04/09 11:03:05;;;;;;;;;;;;;;;19.24;58.33;99595.97;5049081;28;1894;-55
2022/04/09 11:05:33;;;;;;;;;;;;;;;19.23;57.78;99579.03;5049393;28;1570;-55
2022/04/09 11:08:06;;;;;;;;;;;;;;;19.22;57.82;99581.91;5047507;28;1910;-67
2022/04/09 11:10:33;;;;;;;;;;;;;;;19.24;57.55;99585.25;5049491;28;1363;-67
2022/04/09 11:13:00;;;;;;;;;;;;;;;19.23;57.36;99588.94;5050871;28;1358;-67
2022/04/09 11:15:27;;;;;;;;;;;;;;;19.21;58.13;99583.72;5046326;28;1466;-55
2022/04/09 11:17:59;;;;;;;;;;;;;;;19.23;57.19;99583.56;5046190;28;1718;-67
2022/04/09 11:20:31;;;;;;;;;;;;;;;19.22;58.12;99600.66;5048549;28;1346;-67
2022/04/09 11:22:58;;;;;;;;;;;;;;;19.19;58.17;99577.69;5052727;28;1672;-55
2022/04/09 11:25:26;;;;;;;;;;;;;;;19.18;57.08;99578.72;5053424;28;1636;-67
2022/04/09 11:28:04;;;;;;;;;;;;;;;19.18;57.89;99572.50;5045400;28;1910;-67
2022/04/09 11:30:31;;;;;;;;;;;;;;;19.20;57.56;99570.50;5052092;28;1160;-57
2022/04/09 11:32:57;;;;;;;;;;;;;;;19.18;58.12;99575.19;5047918;28;1608;-67
2022/04/09 11:35:25;;;;;;;;;;;;;;;19.19;58.06;99572.34;5051113;28;1715;-56
2022/04/09 11:37:53;;;;;;;;;;;;;;;19.15;58.21;99548.72;5053109;28;1624;-55
2022/04/09 11:40:22;;;;;;;;;;;;;;;19.15;57.33;99562.97;5049697;28;1517;-55
2022/04/09 11:42:49;;;;;;;;;;;;;;;19.16;57.52;99570.00;5055085;28;1641;-67
2022/04/09 11:45:20;;;;;;;;;;;;;;;19.14;58.53;99569.34;5043874;28;1040;-67
2022/04/09 11:47:46;;;;;;;;;;;;;;;19.11;58.10;99542.84;5050260;28;1556;-55
2022/04/09 11:50:13;;;;;;;;;;;;;;;19.18;57.93;99551.06;5052190;28;1907;-67
2022/04/09 11:52:40;;;;;;;;;;;;;;;19.33;56.68;99546.72;5052132;28;1549;-71
2022/04/09 11:55:10;;;;;;;;;;;;;;;19.33;56.46;99532.50;5051786;28;1514;-72
2022/04/09 11:57:37;;;;;;;;;;;;;;;19.28;57.29;99541.03;5049583;28;1351;-67
2022/04/09 12:00:05;;;;;;;;;;;;;;;19.30;56.64;99538.16;5046744;28;1546;-68
2022/04/09 12:02:32;;;;;;;;;;;;;;;19.35;56.70;99528.63;5044609;28;1676;-58
2022/04/09 12:04:58;;;;;;;;;;;;;;;19.39;56.76;99539.84;5043288;28;1429;-65
2022/04/09 12:07:28;;;;;;;;;;;;;;;19.39;56.83;99535.31;5047314;28;1425;-59
2022/04/09 12:09:54;;;;;;;;;;;;;;;19.38;57.88;99538.19;5049818;28;2014;-57
2022/04/09 12:12:23;;;;;;;;;;;;;;;19.34;57.63;99529.66;5044208;28;1397;-64
2022/04/09 12:14:54;;;;;;;;;;;;;;;19.31;57.25;99516.56;5051262;28;1715;-68
2022/04/09 12:17:22;;;;;;;;;;;;;;;19.22;56.19;99521.09;5044537;28;1636;-66
2022/04/09 12:19:49;;;;;;;;;;;;;;;19.24;57.49;99520.94;5049711;28;1740;-68
2022/04/09 12:22:19;;;;;;;;;;;;;;;19.24;56.90;99510.22;5044423;28;1316;-56
2022/04/09 12:24:50;;;;;;;;;;;;;;;19.27;57.18;99510.69;5049448;28;1128;-57
2022/04/09 12:27:16;;;;;;;;;;;;;;;19.38;57.33;99517.56;5046394;28;1648;-66
2022/04/09 12:29:52;;;;;;;;;;;;;;;19.37;57.05;99498.97;5049560;28;1973;-63
2022/04/09 12:32:21;;;;;;;;;;;;;;;19.45;57.44;99513.19;5044374;28;1591;-67
2022/04/09 12:34:55;;;;;;;;;;;;;;;19.37;57.25;99505.16;5048634;28;1425;-58
2022/04/09 12:37:22;;;;;;;;;;;;;;;19.30;57.50;99519.41;5042115;28;1253;-66
2022/04/09 12:39:49;;;;;;;;;;;;;;;19.28;58.29;99490.94;5040262;28;1497;-58
2022/04/09 12:42:16;;;;;;;;;;;;;;;19.26;56.95;99490.28;5046960;28;1778;-55
2022/04/09 12:44:44;;;;;;;;;;;;;;;19.21;56.69;99506.00;5047250;28;1708;-65
2022/04/09 12:47:21;;;;;;;;;;;;;;;19.16;57.87;99505.69;5044254;28;1593;-55
2022/04/09 12:49:47;;;;;;;;;;;;;;;19.13;56.77;99491.78;5043835;28;1902;-64
2022/04/09 12:52:14;;;;;;;;;;;;;;;19.16;56.58;99486.06;5043040;28;1429;-55
2022/04/09 12:54:41;;;;;;;;;;;;;;;19.19;57.30;99493.78;5050525;28;1183;-56
2022/04/09 12:57:08;;;;;;;;;;;;;;;19.17;56.24;99482.41;5043844;28;1457;-65
2022/04/09 12:59:35;;;;;;;;;;;;;;;19.17;56.42;99487.75;5047992;28;1508;-67
2022/04/09 13:02:02;;;;;;;;;;;;;;;19.19;57.04;99480.38;5049614;28;1314;-67